createdAt,value
2023-05-04T00:02:17.921Z,9.07
2023-05-04T00:04:44.599Z,7.67
2023-05-04T00:07:11.707Z,9.07
2023-05-04T00:09:38.554Z,8.53
2023-05-04T00:12:05.741Z,8.13
2023-05-04T00:14:32.335Z,8.40
2023-05-04T00:16:59.130Z,8.50
2023-05-04T00:19:25.959Z,8.77
2023-05-04T00:21:52.523Z,8.60
2023-05-04T00:24:19.171Z,7.93
2023-05-04T00:26:45.855Z,8.43
2023-05-04T00:29:12.473Z,8.00
2023-05-04T00:31:39.257Z,8.23
2023-05-04T00:34:05.891Z,8.73
2023-05-04T00:36:33.757Z,8.80
2023-05-04T00:39:00.441Z,7.67
2023-05-04T00:41:27.130Z,8.37
2023-05-04T00:43:53.740Z,8.90
2023-05-04T00:46:20.608Z,9.40
2023-05-04T00:48:50.027Z,9.03
2023-05-04T00:51:19.329Z,9.37
2023-05-04T00:53:46.072Z,8.90
2023-05-04T00:56:13.038Z,8.57
2023-05-04T00:58:39.700Z,9.43
2023-05-04T01:01:06.415Z,7.63
2023-05-04T01:03:33.824Z,10.33
2023-05-04T01:06:06.669Z,9.83
2023-05-04T01:08:41.008Z,10.17
2023-05-04T01:11:11.309Z,10.03
2023-05-04T01:13:40.141Z,9.47
2023-05-04T01:16:07.073Z,10.87
2023-05-04T01:18:33.694Z,10.07
2023-05-04T01:21:00.430Z,10.30
2023-05-04T01:23:27.557Z,9.50
2023-05-04T01:26:18.908Z,9.93
2023-05-04T01:28:53.247Z,10.10
2023-05-04T01:31:22.954Z,9.93
2023-05-04T01:33:53.078Z,10.07
2023-05-04T01:36:21.599Z,10.23
2023-05-04T01:38:55.537Z,10.60
2023-05-04T01:41:22.169Z,9.57
2023-05-04T01:43:48.921Z,11.80
2023-05-04T01:46:15.728Z,10.40
2023-05-04T01:48:42.336Z,9.27
2023-05-04T01:51:09.024Z,9.43
2023-05-04T01:53:36.236Z,9.80
2023-05-04T01:56:03.252Z,9.77
2023-05-04T01:58:30.003Z,10.97
2023-05-04T02:00:59.281Z,10.53
2023-05-04T02:03:26.527Z,8.93
2023-05-04T02:05:53.318Z,10.03
2023-05-04T02:08:19.965Z,10.37
2023-05-04T02:10:46.706Z,10.43
2023-05-04T02:13:13.405Z,9.57
2023-05-04T02:15:40.546Z,9.80
2023-05-04T02:18:07.343Z,9.83
2023-05-04T02:20:34.119Z,9.57
2023-05-04T02:23:00.815Z,9.90
2023-05-04T02:25:27.527Z,7.77
2023-05-04T02:27:54.248Z,8.57
2023-05-04T02:30:21.023Z,8.60
2023-05-04T02:32:47.784Z,8.50
2023-05-04T02:35:14.436Z,8.77
2023-05-04T02:37:41.837Z,7.97
2023-05-04T02:40:09.071Z,7.17
2023-05-04T02:42:35.704Z,7.90
2023-05-04T02:45:02.332Z,6.47
2023-05-04T02:47:29.111Z,6.53
2023-05-04T02:49:55.824Z,6.67
2023-05-04T02:52:22.432Z,6.47
2023-05-04T02:54:50.131Z,6.37
2023-05-04T02:57:18.382Z,6.83
2023-05-04T02:59:45.001Z,6.40
2023-05-04T03:02:11.787Z,5.97
2023-05-04T03:04:38.517Z,5.73
2023-05-04T03:07:05.205Z,5.93
2023-05-04T03:09:31.880Z,4.67
2023-05-04T03:11:58.498Z,5.80
2023-05-04T03:14:25.160Z,5.30
2023-05-04T03:16:51.990Z,5.83
2023-05-04T03:19:19.168Z,4.77
2023-05-04T03:21:46.464Z,5.00
2023-05-04T03:24:13.211Z,5.00
2023-05-04T03:26:39.855Z,4.70
2023-05-04T03:29:06.636Z,4.83
2023-05-04T03:31:33.344Z,5.60
2023-05-04T03:34:00.069Z,4.20
2023-05-04T03:36:26.732Z,4.73
2023-05-04T03:38:53.434Z,4.63
2023-05-04T03:41:21.226Z,4.23
2023-05-04T03:43:47.819Z,4.73
2023-05-04T03:46:14.550Z,4.87
2023-05-04T03:48:42.368Z,5.40
2023-05-04T03:51:09.032Z,4.33
2023-05-04T03:53:35.888Z,4.70
2023-05-04T03:56:03.519Z,5.10
2023-05-04T03:58:30.316Z,5.00
2023-05-04T04:00:57.044Z,4.47
2023-05-04T04:03:23.874Z,4.83
2023-05-04T04:05:50.866Z,4.00
2023-05-04T04:08:17.484Z,5.10
2023-05-04T04:10:44.161Z,5.30
2023-05-04T04:13:10.990Z,4.73
2023-05-04T04:15:37.679Z,4.40
2023-05-04T04:18:04.434Z,4.90
2023-05-04T04:20:31.195Z,5.10
2023-05-04T04:22:57.818Z,4.80
2023-05-04T04:25:24.536Z,4.43
2023-05-04T04:27:51.644Z,4.87
2023-05-04T04:30:18.337Z,5.03
2023-05-04T04:32:45.835Z,5.97
2023-05-04T04:35:14.144Z,5.40
2023-05-04T04:37:40.933Z,5.17
2023-05-04T04:40:08.102Z,5.53
2023-05-04T04:42:34.894Z,6.30
2023-05-04T04:45:05.092Z,5.90
2023-05-04T04:47:33.066Z,6.80
2023-05-04T04:49:59.969Z,6.50
2023-05-04T04:52:26.651Z,5.20
2023-05-04T04:54:53.233Z,5.77
2023-05-04T04:57:19.927Z,5.00
2023-05-04T04:59:46.551Z,6.50
2023-05-04T05:02:13.146Z,7.60
2023-05-04T05:04:41.477Z,6.13
2023-05-04T05:07:10.962Z,6.57
2023-05-04T05:09:38.476Z,5.03
2023-05-04T05:12:05.558Z,4.87
2023-05-04T05:14:32.213Z,4.23
2023-05-04T05:16:59.625Z,4.83
2023-05-04T05:19:26.302Z,5.33
2023-05-04T05:21:53.016Z,8.00
2023-05-04T05:24:19.680Z,8.57
2023-05-04T05:26:46.309Z,6.53
2023-05-04T05:29:12.962Z,7.43
2023-05-04T05:31:39.600Z,4.80
2023-05-04T05:34:06.240Z,5.40
2023-05-04T05:36:32.847Z,5.20
2023-05-04T05:38:59.474Z,4.80
2023-05-04T05:41:26.122Z,4.70
2023-05-04T05:43:52.735Z,4.53
2023-05-04T05:46:19.369Z,5.10
2023-05-04T05:48:46.056Z,5.70
2023-05-04T05:51:12.647Z,5.43
2023-05-04T05:53:39.339Z,4.80
2023-05-04T05:56:06.128Z,5.30
2023-05-04T05:58:32.734Z,5.33
2023-05-04T06:00:59.343Z,6.40
2023-05-04T06:03:26.539Z,5.60
2023-05-04T06:05:53.288Z,5.50
2023-05-04T06:08:19.948Z,6.27
2023-05-04T06:10:46.588Z,6.13
2023-05-04T06:13:13.258Z,4.90
2023-05-04T06:15:39.924Z,4.60
2023-05-04T06:18:06.630Z,5.00
2023-05-04T06:20:33.412Z,5.10
2023-05-04T06:23:00.066Z,4.33
2023-05-04T06:25:26.697Z,4.90
2023-05-04T06:27:53.414Z,4.47
2023-05-04T06:30:24.261Z,4.40
2023-05-04T06:32:51.472Z,4.70
2023-05-04T06:35:19.095Z,4.17
2023-05-04T06:37:45.957Z,3.77
2023-05-04T06:40:13.409Z,3.77
2023-05-04T06:42:40.444Z,4.10
2023-05-04T06:45:07.501Z,4.13
2023-05-04T06:47:37.875Z,4.03
2023-05-04T06:50:11.927Z,4.20
2023-05-04T06:52:39.928Z,3.70
2023-05-04T06:55:07.743Z,3.97
2023-05-04T06:57:34.567Z,3.40
2023-05-04T07:00:03.315Z,3.73
2023-05-04T07:02:30.408Z,3.90
2023-05-04T07:04:57.692Z,3.93
2023-05-04T07:07:24.400Z,3.40
2023-05-04T07:09:51.002Z,3.80
2023-05-04T07:12:18.614Z,4.27
2023-05-04T07:14:45.309Z,4.00
2023-05-04T07:17:11.921Z,3.90
2023-05-04T07:19:38.615Z,4.43
2023-05-04T07:22:05.270Z,4.03
2023-05-04T07:24:32.105Z,9.63
2023-05-04T07:26:58.729Z,5.73
2023-05-04T07:29:26.510Z,4.57
2023-05-04T07:31:53.161Z,11.83
2023-05-04T07:34:20.216Z,7.20
2023-05-04T07:36:48.000Z,6.50
2023-05-04T07:39:16.610Z,5.40
2023-05-04T07:41:43.187Z,3.83
2023-05-04T07:44:11.291Z,4.23
2023-05-04T07:46:38.881Z,4.67
2023-05-04T07:49:06.020Z,5.47
2023-05-04T07:51:32.643Z,4.50
2023-05-04T07:53:59.224Z,4.27
2023-05-04T07:56:25.891Z,4.17
2023-05-04T07:58:52.450Z,4.53
2023-05-04T08:01:19.134Z,4.40
2023-05-04T08:03:46.106Z,4.47
2023-05-04T08:06:13.263Z,4.27
2023-05-04T08:08:39.973Z,4.73
2023-05-04T08:11:19.199Z,5.13
2023-05-04T08:13:50.649Z,5.00
2023-05-04T08:16:17.463Z,5.80
2023-05-04T08:18:44.124Z,4.50
2023-05-04T08:21:10.840Z,4.77
2023-05-04T08:23:37.454Z,4.90
2023-05-04T08:26:04.866Z,4.20
2023-05-04T08:28:35.669Z,5.27
2023-05-04T08:31:03.163Z,5.07
2023-05-04T08:33:30.347Z,4.73
2023-05-04T08:35:56.984Z,4.70
2023-05-04T08:38:23.693Z,5.53
2023-05-04T08:40:50.735Z,4.80
2023-05-04T08:43:17.441Z,4.70
2023-05-04T08:45:45.374Z,4.90
2023-05-04T08:48:12.002Z,4.87
2023-05-04T08:50:38.788Z,5.20
2023-05-04T08:53:13.845Z,5.63
2023-05-04T08:55:43.855Z,5.23
2023-05-04T08:58:12.879Z,3.93
2023-05-04T09:00:41.379Z,5.33
2023-05-04T09:03:10.576Z,5.10
2023-05-04T09:05:38.420Z,5.40
2023-05-04T09:08:05.791Z,5.23
2023-05-04T09:10:33.513Z,5.70
2023-05-04T09:13:00.612Z,4.60
2023-05-04T09:15:27.476Z,5.47
2023-05-04T09:18:05.571Z,4.93
2023-05-04T09:20:44.737Z,5.67
2023-05-04T09:23:12.026Z,4.97
2023-05-04T09:25:55.787Z,5.03
2023-05-04T09:28:36.384Z,4.20
2023-05-04T09:31:04.222Z,4.70
2023-05-04T09:33:32.077Z,4.60
2023-05-04T09:36:17.154Z,5.20
2023-05-04T09:38:44.353Z,4.77
2023-05-04T09:41:11.787Z,3.63
2023-05-04T09:43:43.917Z,4.33
2023-05-04T09:46:18.393Z,5.70
2023-05-04T09:48:53.115Z,5.33
2023-05-04T09:51:22.550Z,4.70
2023-05-04T09:53:50.511Z,4.60
2023-05-04T09:56:38.871Z,4.17
2023-05-04T09:59:05.973Z,4.43
2023-05-04T10:01:33.091Z,5.73
2023-05-04T10:04:00.068Z,5.30
2023-05-04T10:06:30.160Z,5.43
2023-05-04T10:08:59.254Z,5.70
2023-05-04T10:11:26.745Z,5.37
2023-05-04T10:13:57.174Z,5.60
2023-05-04T10:16:37.430Z,5.23
2023-05-04T10:19:39.652Z,5.27
2023-05-04T10:22:18.539Z,5.00
2023-05-04T10:25:24.863Z,5.90
2023-05-04T10:28:03.647Z,6.23
2023-05-04T10:30:30.608Z,6.47
2023-05-04T10:32:58.867Z,7.53
2023-05-04T10:35:25.977Z,7.23
2023-05-04T10:37:56.670Z,6.93
2023-05-04T10:40:40.033Z,6.47
2023-05-04T10:43:08.320Z,6.57
2023-05-04T10:45:39.772Z,7.27
2023-05-04T10:48:08.050Z,5.30
2023-05-04T10:50:45.849Z,5.93
2023-05-04T10:53:14.513Z,6.73
2023-05-04T10:55:46.166Z,6.70
2023-05-04T10:58:16.642Z,6.40
2023-05-04T11:00:45.882Z,7.87
2023-05-04T11:03:14.242Z,6.63
2023-05-04T11:05:43.268Z,6.50
2023-05-04T11:08:22.775Z,6.60
2023-05-04T11:11:01.951Z,6.00
2023-05-04T11:13:34.390Z,6.03
2023-05-04T11:16:01.783Z,6.60
2023-05-04T11:18:28.691Z,6.93
2023-05-04T11:20:58.408Z,6.17
2023-05-04T11:23:25.381Z,6.43
2023-05-04T11:25:52.550Z,8.30
2023-05-04T11:28:19.243Z,8.50
2023-05-04T11:30:47.714Z,7.23
2023-05-04T11:33:15.678Z,7.83
2023-05-04T11:35:44.246Z,7.83
2023-05-04T11:38:11.066Z,7.20
2023-05-04T11:40:41.144Z,7.13
2023-05-04T11:43:10.688Z,6.87
2023-05-04T11:45:40.133Z,7.10
2023-05-04T11:48:08.518Z,6.93
2023-05-04T11:50:35.605Z,7.97
2023-05-04T11:53:10.566Z,9.17
2023-05-04T11:55:38.194Z,7.20
2023-05-04T11:58:06.312Z,7.63
2023-05-04T12:00:38.758Z,7.10
2023-05-04T12:03:13.143Z,9.00
2023-05-04T12:05:50.889Z,8.43
2023-05-04T12:08:27.454Z,7.43
2023-05-04T12:11:11.182Z,7.30
2023-05-04T12:13:38.074Z,8.57
2023-05-04T12:16:12.679Z,7.93
2023-05-04T12:18:39.751Z,8.17
2023-05-04T12:21:19.863Z,7.90
2023-05-04T12:23:47.517Z,8.03
2023-05-04T12:26:16.264Z,8.53
2023-05-04T12:28:45.129Z,11.73
2023-05-04T12:31:11.827Z,9.97
2023-05-04T12:33:38.519Z,7.93
2023-05-04T12:36:06.188Z,7.73
2023-05-04T12:38:33.903Z,8.33
2023-05-04T12:41:04.425Z,7.03
2023-05-04T12:43:32.289Z,10.10
2023-05-04T12:45:59.777Z,8.37
2023-05-04T12:48:28.404Z,8.67
2023-05-04T12:50:55.113Z,8.23
2023-05-04T12:53:24.517Z,9.50
2023-05-04T12:55:51.360Z,8.37
2023-05-04T12:58:17.990Z,10.10
2023-05-04T13:00:45.972Z,7.67
2023-05-04T13:03:13.215Z,8.13
2023-05-04T13:05:40.313Z,7.57
2023-05-04T13:08:06.961Z,8.47
2023-05-04T13:10:33.641Z,8.07
2023-05-04T13:13:00.557Z,8.30
2023-05-04T13:15:28.044Z,7.60
2023-05-04T13:17:54.949Z,8.27
2023-05-04T13:20:22.711Z,9.17
2023-05-04T13:22:50.600Z,8.00
2023-05-04T13:25:17.306Z,7.90
2023-05-04T13:27:44.088Z,6.07
2023-05-04T13:30:11.108Z,4.43
2023-05-04T13:32:37.970Z,4.50
2023-05-04T13:35:05.065Z,4.80
2023-05-04T13:37:31.741Z,4.00
2023-05-04T13:39:59.620Z,4.03
2023-05-04T13:42:26.309Z,3.87
2023-05-04T13:44:53.054Z,4.57
2023-05-04T13:47:19.646Z,4.00
2023-05-04T13:49:46.538Z,3.93
2023-05-04T13:52:13.535Z,3.80
2023-05-04T13:54:40.288Z,3.63
2023-05-04T13:57:07.392Z,3.70
2023-05-04T13:59:34.289Z,3.70
2023-05-04T14:02:01.997Z,3.63
2023-05-04T14:04:28.759Z,3.73
2023-05-04T14:06:57.010Z,3.63
2023-05-04T14:09:23.922Z,4.30
2023-05-04T14:11:50.588Z,3.20
2023-05-04T14:14:17.385Z,3.93
2023-05-04T14:16:44.071Z,3.80
2023-05-04T14:19:10.754Z,4.30
2023-05-04T14:21:37.386Z,3.83
2023-05-04T14:24:04.521Z,4.40
2023-05-04T14:26:34.656Z,3.73
2023-05-04T14:29:01.939Z,3.87
2023-05-04T14:31:28.694Z,4.17
2023-05-04T14:33:57.035Z,7.10
2023-05-04T14:36:23.835Z,5.07
2023-05-04T14:38:50.648Z,4.43
2023-05-04T14:41:17.597Z,4.33
2023-05-04T14:43:44.304Z,4.50
2023-05-04T14:46:12.863Z,5.63
2023-05-04T14:48:39.593Z,6.13
2023-05-04T14:51:06.501Z,5.60
2023-05-04T14:53:37.164Z,8.20
2023-05-04T14:56:05.456Z,6.53
2023-05-04T14:58:32.112Z,6.33
2023-05-04T15:00:58.841Z,5.23
2023-05-04T15:03:26.012Z,5.57
2023-05-04T15:05:52.916Z,5.37
2023-05-04T15:08:19.556Z,4.47
2023-05-04T15:10:46.440Z,5.20
2023-05-04T15:13:15.800Z,5.37
2023-05-04T15:15:42.908Z,4.83
2023-05-04T15:18:10.217Z,6.00
2023-05-04T15:20:38.656Z,17.77
2023-05-04T15:23:10.652Z,8.00
2023-05-04T15:25:41.928Z,5.70
2023-05-04T15:28:11.056Z,5.07
2023-05-04T15:30:42.046Z,5.03
2023-05-04T15:33:09.198Z,3.63
2023-05-04T15:35:36.742Z,3.43
2023-05-04T15:38:03.606Z,3.17
2023-05-04T15:40:31.427Z,3.13
2023-05-04T15:42:58.186Z,3.40
2023-05-04T15:45:24.954Z,3.60
2023-05-04T15:47:53.544Z,2.80
2023-05-04T15:50:21.116Z,2.87
2023-05-04T15:52:47.783Z,2.87
2023-05-04T15:55:25.285Z,3.77
2023-05-04T15:57:52.909Z,3.57
2023-05-04T16:00:20.935Z,3.33
2023-05-04T16:02:47.805Z,3.40
2023-05-04T16:05:14.698Z,3.17
2023-05-04T16:07:41.584Z,2.30
2023-05-04T16:10:09.443Z,3.30
2023-05-04T16:12:36.513Z,2.93
2023-05-04T16:15:03.322Z,3.60
2023-05-04T16:17:35.073Z,2.43
2023-05-04T16:20:02.611Z,2.60
2023-05-04T16:22:29.460Z,3.63
2023-05-04T16:24:56.155Z,3.30
2023-05-04T16:27:28.814Z,3.53
2023-05-04T16:29:56.073Z,4.07
2023-05-04T16:32:22.809Z,2.93
2023-05-04T16:34:49.561Z,3.77
2023-05-04T16:37:17.428Z,2.33
2023-05-04T16:39:44.025Z,2.57
2023-05-04T16:42:10.645Z,2.30
2023-05-04T16:44:37.403Z,2.23
2023-05-04T16:47:04.116Z,2.20
2023-05-04T16:49:30.871Z,1.97
2023-05-04T16:51:57.552Z,1.73
2023-05-04T16:54:24.264Z,2.40
2023-05-04T16:56:51.127Z,13.97
2023-05-04T16:59:17.830Z,6.57
2023-05-04T17:01:46.127Z,2.17
2023-05-04T17:04:12.775Z,2.63
2023-05-04T17:06:39.553Z,2.50
2023-05-04T17:09:07.048Z,1.60
2023-05-04T17:11:34.471Z,2.10
2023-05-04T17:14:01.359Z,1.50
2023-05-04T17:16:28.164Z,2.00
2023-05-04T17:18:54.988Z,3.10
2023-05-04T17:21:21.645Z,19.37
2023-05-04T17:23:48.273Z,6.27
2023-05-04T17:26:14.865Z,3.57
2023-05-04T17:28:41.629Z,1.70
2023-05-04T17:31:11.531Z,1.80
2023-05-04T17:33:38.778Z,2.07
2023-05-04T17:36:07.593Z,1.33
2023-05-04T17:38:34.398Z,2.03
2023-05-04T17:41:01.055Z,1.50
2023-05-04T17:43:30.572Z,1.97
2023-05-04T17:45:57.218Z,2.53
2023-05-04T17:48:24.273Z,2.33
2023-05-04T17:50:51.482Z,5.33
2023-05-04T17:53:18.176Z,2.27
2023-05-04T17:55:44.786Z,2.50
2023-05-04T17:58:11.407Z,2.43
2023-05-04T18:00:38.066Z,2.53
2023-05-04T18:03:04.796Z,2.40
2023-05-04T18:05:32.153Z,2.73
2023-05-04T18:07:59.028Z,2.53
2023-05-04T18:10:25.837Z,2.70
2023-05-04T18:12:52.673Z,2.47
2023-05-04T18:15:19.514Z,2.30
2023-05-04T18:17:46.251Z,2.37
2023-05-04T18:20:13.300Z,2.53
2023-05-04T18:22:40.100Z,2.53
2023-05-04T18:25:07.343Z,2.73
2023-05-04T18:27:35.237Z,2.67
2023-05-04T18:30:04.414Z,2.50
2023-05-04T18:32:31.284Z,2.50
2023-05-04T18:34:58.075Z,2.73
2023-05-04T18:37:25.043Z,2.17
2023-05-04T18:39:51.667Z,2.53
2023-05-04T18:42:18.342Z,2.27
2023-05-04T18:44:45.017Z,2.43
2023-05-04T18:47:11.680Z,2.20
2023-05-04T18:49:38.389Z,2.73
2023-05-04T18:52:05.247Z,2.77
2023-05-04T18:54:32.577Z,2.47
2023-05-04T18:56:59.516Z,3.03
2023-05-04T18:59:26.149Z,3.30
2023-05-04T19:01:53.111Z,3.70
2023-05-04T19:04:19.844Z,3.07
2023-05-04T19:06:47.799Z,2.90
2023-05-04T19:09:14.935Z,3.50
2023-05-04T19:11:41.663Z,3.10
2023-05-04T19:14:08.304Z,3.77
2023-05-04T19:16:34.959Z,4.23
2023-05-04T19:19:02.356Z,3.40
2023-05-04T19:21:29.326Z,4.30
2023-05-04T19:23:55.905Z,3.80
2023-05-04T19:26:22.659Z,3.57
2023-05-04T19:28:49.317Z,3.23
2023-05-04T19:31:16.451Z,3.50
2023-05-04T19:33:48.385Z,4.20
2023-05-04T19:36:16.237Z,4.40
2023-05-04T19:38:42.877Z,4.67
2023-05-04T19:41:09.522Z,4.43
2023-05-04T19:43:36.218Z,4.47
2023-05-04T19:46:03.117Z,4.77
2023-05-04T19:48:29.746Z,3.77
2023-05-04T19:50:56.407Z,4.30
2023-05-04T19:53:23.020Z,4.40
2023-05-04T19:55:49.777Z,4.67
2023-05-04T19:58:16.462Z,4.23
2023-05-04T20:00:43.182Z,4.63
2023-05-04T20:03:10.515Z,3.87
2023-05-04T20:05:38.528Z,4.27
2023-05-04T20:08:05.409Z,4.47
2023-05-04T20:10:32.383Z,4.40
2023-05-04T20:12:59.085Z,4.03
2023-05-04T20:15:26.015Z,4.13
2023-05-04T20:17:52.771Z,5.10
2023-05-04T20:20:21.502Z,4.90
2023-05-04T20:22:52.187Z,4.40
2023-05-04T20:25:19.914Z,4.87
2023-05-04T20:27:48.689Z,4.80
2023-05-04T20:30:15.738Z,4.60
2023-05-04T20:32:44.131Z,4.63
2023-05-04T20:35:11.037Z,3.87
2023-05-04T20:37:37.659Z,4.23
2023-05-04T20:40:04.978Z,4.80
2023-05-04T20:42:31.907Z,4.73
2023-05-04T20:44:58.524Z,4.33
2023-05-04T20:47:25.150Z,4.63
2023-05-04T20:49:52.691Z,4.90
2023-05-04T20:52:19.460Z,5.10
2023-05-04T20:54:46.085Z,5.07
2023-05-04T20:57:12.688Z,4.10
2023-05-04T20:59:39.276Z,4.70
2023-05-04T21:02:06.615Z,4.53
2023-05-04T21:04:33.206Z,4.27
2023-05-04T21:06:59.896Z,4.30
2023-05-04T21:09:26.725Z,3.53
2023-05-04T21:11:53.300Z,3.83
2023-05-04T21:14:19.982Z,4.23
2023-05-04T21:16:46.556Z,3.77
2023-05-04T21:19:13.277Z,3.40
2023-05-04T21:21:41.531Z,3.90
2023-05-04T21:24:17.524Z,4.27
2023-05-04T21:26:45.608Z,3.87
2023-05-04T21:29:15.439Z,3.90
2023-05-04T21:31:42.288Z,3.37
2023-05-04T21:34:08.963Z,4.10
2023-05-04T21:36:35.918Z,3.23
2023-05-04T21:39:03.325Z,3.87
2023-05-04T21:41:29.894Z,3.60
2023-05-04T21:43:56.756Z,4.03
2023-05-04T21:46:23.457Z,4.17
2023-05-04T21:48:51.808Z,3.60
2023-05-04T21:51:20.664Z,4.00
2023-05-04T21:53:47.933Z,3.83
2023-05-04T21:56:15.117Z,3.67
2023-05-04T21:58:42.195Z,3.70
2023-05-04T22:01:09.717Z,3.70
2023-05-04T22:03:36.744Z,4.07
2023-05-04T22:06:03.750Z,3.10
2023-05-04T22:08:30.570Z,3.07
2023-05-04T22:10:58.596Z,3.20
2023-05-04T22:13:26.155Z,3.83
2023-05-04T22:15:53.542Z,2.93
2023-05-04T22:18:20.892Z,3.70
2023-05-04T22:20:47.619Z,3.43
2023-05-04T22:23:14.329Z,2.50
2023-05-04T22:25:41.337Z,3.30
2023-05-04T22:28:08.022Z,3.13
2023-05-04T22:30:34.713Z,3.20
2023-05-04T22:33:01.610Z,3.20
2023-05-04T22:35:28.594Z,3.87
2023-05-04T22:37:55.364Z,3.47
2023-05-04T22:40:22.540Z,3.43
2023-05-04T22:42:49.371Z,3.03
2023-05-04T22:45:17.620Z,3.03
2023-05-04T22:47:44.708Z,3.80
2023-05-04T22:50:11.445Z,3.60
2023-05-04T22:52:39.136Z,3.80
2023-05-04T22:55:06.553Z,3.57
2023-05-04T22:57:33.195Z,3.20
2023-05-04T22:59:59.825Z,3.80
2023-05-04T23:02:26.637Z,3.13
2023-05-04T23:04:53.432Z,3.60
2023-05-04T23:07:20.169Z,4.00
2023-05-04T23:09:47.452Z,3.87
2023-05-04T23:12:15.175Z,3.33
2023-05-04T23:14:42.110Z,3.90
2023-05-04T23:17:09.462Z,3.60
2023-05-04T23:19:36.417Z,3.40
2023-05-04T23:22:03.082Z,4.00
2023-05-04T23:24:29.804Z,3.73
2023-05-04T23:26:56.374Z,3.70
2023-05-04T23:29:23.088Z,3.57
2023-05-04T23:31:49.781Z,3.70
2023-05-04T23:34:16.471Z,3.97
2023-05-04T23:36:43.054Z,3.73
2023-05-04T23:39:10.187Z,4.03
2023-05-04T23:41:36.733Z,3.87
2023-05-04T23:44:03.942Z,4.17
2023-05-04T23:46:30.724Z,3.67
2023-05-04T23:48:57.340Z,4.07
2023-05-04T23:51:23.893Z,3.93
2023-05-04T23:53:50.613Z,4.20
2023-05-04T23:56:17.583Z,4.30
2023-05-04T23:58:44.239Z,4.67
